SAWG/RGL METAR and TAF weather

Enter ICAO airport designator
Station Type Date Time Source
SAWG METAR 2022/01/26 20:00 UTC NOAA

SAWG 262000Z 25017KT CAVOK 18/04 Q1018


Station Type Date Time Source
SAWG Decoded METAR 2022/01/26 20:00 UTC NOAA

Rio Gallegos Aerodrome, Argentina (SAWG) 51-37S 069-17W 19M
Jan 26, 2022 - 03:00 PM EST / 2022.01.26 2000 UTC
Wind: from the WSW (250 degrees) at 20 MPH (17 KT):0
Visibility: greater than 7 mile(s):0
Temperature: 64 F (18 C)
Dew Point: 39 F (4 C)
Relative Humidity: 39%
Pressure (altimeter): 30.06 in. Hg (1018 hPa)
ob: SAWG 262000Z 25017KT CAVOK 18/04 Q1018
cycle: 20

Station Type Date Time Source
SAWG TAF 2022/01/26 18:36 UTC NOAA

TAF SAWG 261700Z 2618/2718 26020G30KT 9999 FEW020 SCT080 TX20/2620Z TN07/2710Z
BECMG 2623/2701 SCT030
BECMG 2704/2706 25010KT

Example: see airport list